Station: PARAWA AWS

  Atmospheric Gas Attenuation - ITU Rec 676-11   --------------- db/100km ---------------
Date Time Temp RH % AH g/m3 Dew Point Wind Direction Speed kph Gust kph Barometer mB Rainfall Since 9am 24GHz 47GHz 76GHz 122GHz 134GHz 241GHz
24 20:30 24.7 34 7.7 7.8 9 11 1002.6 0 17.2 21.4 31.3 82.1 74.9 257.7
24 20:20 25 34 7.83 8 11 11 1013.1 0 17.5 21.8 32.0 83.8 76.8 264.1
24 20:10 25.5 34 8.05 8.5 11 13 1013.1 0 17.9 22.0 32.6 85.3 78.7 271.0
24 20:00 25.8 34 8.19 8.8 13 17 1002.8 0 18.2 21.8 32.5 85.3 79.3 273.0
24 19:50 26.1 34 8.32 9 11 13 1013.1 0 18.4 22.2 33.2 87.1 81.1 279.5
24 19:40 26.3 35 8.66 9.6 9 13 1013.1 0 19.1 22.6 34.3 90.0 84.7 292.0
24 19:30 26.4 35 8.71 9.7 11 15 1002.7 0 19.2 22.3 34.0 89.4 84.4 291.1
24 19:20 26 37 9.01 10.2 11 13 1013.1 0 19.9 23.2 35.6 93.5 89.0 307.0
24 19:10 26.7 36 9.11 10.4 11 11 1013.1 0 20.0 23.2 35.7 93.6 89.3 308.3
24 19:00 26.9 36 9.21 10.6 11 15 1002.8 0 20.3 22.9 35.5 93.3 89.5 308.9
24 18:50 27.2 36 9.37 11.2 11 13 1013.1 0 20.6 23.4 36.3 95.4 91.7 316.7
24 18:40 27.6 37 9.84 11.6 15 17 1013.1 0 21.5 24.0 37.8 99.3 96.6 333.8
24 18:30 29.5 34 10.04 12 9 13 1002.3 0 21.9 23.4 37.2 97.8 95.7 331.1
24 18:20 30 32 9.71 11.5 9 11 1013.1 0 21.1 23.2 36.3 95.3 92.3 319.1
24 18:10 29.8 33 9.9 11.8 11 11 1013.1 0 21.5 23.5 37.0 97.2 94.7 327.3
24 18:00 29 34 9.77 11.6 13 19 1002.5 0 21.3 23.2 36.5 96.0 93.3 322.6
24 17:50 29 33 9.48 11.1 17 20 1013.1 0 20.7 23.1 35.9 94.4 90.9 314.1
24 17:40 30.9 27 8.6 10.2 17 20 1013.1 0 18.8 21.5 32.3 84.6 79.4 274.0
24 17:30 32.4 24 8.28 9.2 13 22 1002.3 0 18.1 20.4 30.3 79.5 74.0 255.3
24 17:20 37.2 11 4.87 1.8 17 20 1013.1 0 11.0 15.9 19.7 51.0 39.7 134.8
24 17:10 37.9 11 5.05 2.3 11 17 1013.1 0 11.3 16.0 20.0 51.8 40.9 139.1
24 17:00 38.1 11 5.1 2.5 17 28 1002.5 0 11.4 15.7 19.8 51.4 40.8 138.9
24 16:50 37.8 12 5.48 3.5 13 17 1013.1 0 12.2 16.4 21.1 54.9 44.6 152.2
24 16:40 36.2 12 5.05 2.3 19 24 1013.1 0 11.4 16.2 20.4 52.9 41.7 141.8
24 16:30 36 13 5.42 3.3 15 22 1002.9 0 12.1 16.4 21.1 54.9 44.6 152.1
24 16:20 36.4 12 5.1 2.4 17 20 1013.1 0 11.5 16.3 20.5 53.1 42.0 143.0
24 16:10 36.5 12 5.13 2.5 15 19 1013.1 0 11.5 16.3 20.5 53.2 42.3 143.8
24 16:00 36.5 12 5.13 2.5 20 28 1003.2 0 11.5 16.0 20.2 52.6 41.9 142.5
24 15:50 36.8 12 5.21 2.7 20 28 1013.1 0 11.7 16.3 20.7 53.6 42.8 145.7
24 15:40 36.8 12 5.21 2.7 20 30 1013.1 0 11.7 16.3 20.7 53.6 42.8 145.7
24 15:30 37.4 12 5.37 3.2 15 26 1003.6 0 12.0 16.1 20.7 53.8 43.5 148.3
24 15:20 37.5 12 5.4 3.3 11 15 1013.1 0 12.0 16.4 21.0 54.5 44.1 150.3
24 15:10 36.7 13 5.62 3.8 11 19 1013.1 0 12.5 16.8 21.8 56.6 46.4 158.5
24 15:00 36.6 13 5.59 3.7 15 24 1004.1 0 12.5 16.5 21.4 55.8 45.8 156.5
24 14:50 37.8 12 5.48 3.5 9 13 1013.1 0 12.2 16.4 21.1 54.9 44.6 152.2
24 14:40 38.6 12 5.71 4.1 7 11 1013.1 0 12.6 16.6 21.5 56.0 46.2 157.8
24 14:30 37.7 12 5.46 3.4 15 28 1004.2 0 12.2 16.2 20.8 54.2 44.1 150.6
24 14:20 39.3 12 5.92 4.6 4 6 1013.1 0 13.0 16.7 21.9 57.0 47.6 162.9
24 14:10 38.7 12 5.74 4.2 15 17 1013.1 0 12.7 16.6 21.6 56.1 46.4 158.6
24 14:00 38.6 11 5.24 2.9 17 32 1004.4 0 11.7 15.8 20.1 52.2 41.8 142.5
24 13:50 38.9 11 5.32 3.1 9 9 1013.1 0 11.8 16.1 20.4 53.1 42.7 145.6
24 13:40 38.7 11 5.26 2.9 13 19 1013.1 0 11.7 16.1 20.3 52.8 42.3 144.1
24 13:30 38.8 10 4.81 1.7 13 26 1004.7 0 10.8 15.4 19.0 49.2 38.2 129.6
24 13:20 37.9 10 4.59 1 19 26 1013.1 0 10.4 15.5 18.8 48.7 37.0 125.4
24 13:10 37.7 10 4.55 0.9 17 20 1013.1 0 10.3 15.5 18.8 48.5 36.8 124.5
24 13:00 38 11 5.08 2.5 15 28 1005.1 0 11.4 15.8 19.8 51.5 40.8 138.8
24 12:50 37.7 10 4.55 0.9 13 22 1013.1 0 10.3 15.5 18.8 48.5 36.8 124.5
24 12:40 37.6 10 4.52 0.8 11 17 1013.1 0 10.3 15.5 18.7 48.4 36.6 123.8
24 12:30 37.1 10 4.41 0.4 9 22 1005.4 0 10.0 15.2 18.3 47.5 35.6 120.4
24 12:20 38.1 11 5.1 2.5 9 13 1013.1 0 11.4 16.0 20.1 52.1 41.2 140.3
24 12:10 37.3 11 4.9 1.9 7 9 1013.1 0 11.0 15.9 19.7 51.2 39.9 135.5
24 12:00 37 10 4.39 0.4 9 22 1005.5 0 10.0 15.2 18.3 47.4 35.5 119.9
24 11:50 36.4 12 5.1 2.4 11 15 1013.1 0 11.5 16.3 20.5 53.1 42.0 143.0
24 11:40 35.4 12 4.85 1.6 7 9 1013.1 0 11.0 16.2 20.0 51.9 40.4 136.9
24 11:30 35.4 11 4.44 0.5 7 17 1005.6 0 10.2 15.5 18.8 48.6 36.6 123.6
24 11:20 35.4 12 4.85 1.6 6 13 1013.1 0 11.0 16.2 20.0 51.9 40.4 136.9
24 11:10 35.7 12 4.92 1.9 9 11 1013.1 0 11.1 16.2 20.1 52.2 40.8 138.6
24 11:00 35.8 12 4.95 2 7 20 1005.8 0 11.2 16.0 20.0 51.9 40.8 138.5
24 10:50 35.6 12 4.9 1.8 11 17 1013.1 0 11.1 16.2 20.1 52.2 40.7 138.2
24 10:40 35.9 12 4.97 2 11 15 1013.1 0 11.2 16.2 20.2 52.5 41.2 139.8
24 10:30 34.8 13 5.09 2.3 6 22 1005.8 0 11.5 16.3 20.6 53.5 42.5 144.4
24 10:20 33.5 14 5.12 2.3 7 13 1013.1 0 11.6 16.8 21.2 55.0 43.7 148.5
24 10:10 32.7 15 5.26 2.7 6 6 1013.1 0 11.9 17.1 21.8 56.6 45.3 154.3
24 10:00 32.3 14 4.8 1.4 6 15 1006.1 0 11.0 16.4 20.4 53.0 41.1 139.4
24 09:50 32.1 14 4.75 1.2 4 6 1013.1 0 10.9 16.6 20.5 53.2 41.0 139.0
24 09:40 31.7 14 4.65 0.9 4 4 1013.1 0 10.7 16.6 20.4 52.7 40.3 136.5
24 09:30 31.6 14 4.63 0.9 6 15 1006.2 0 10.6 16.4 20.1 52.2 39.9 135.2
24 09:20 31.1 15 4.83 1.4 6 7 1013.1 0 11.1 16.9 21.0 54.4 42.2 143.2
24 09:10 30.9 15 4.78 1.2 6 7 1013.1 0 11.0 16.8 20.9 54.2 41.9 141.9
24 09:00 30.7 15 4.72 1.1 4 17 1006.3 0 10.9 16.6 20.6 53.4 41.2 139.5
24 08:50 30.3 15 4.62 0.8 7 11 1013.1 0 10.7 16.8 20.6 53.4 40.7 137.7
24 08:40 29.7 17 5.07 2 4 6 1013.1 0 11.6 17.4 22.0 57.1 45.2 153.5
24 08:30 29.3 18 5.26 2.5 4 7 1006.3 0 12.0 17.5 22.5 58.4 46.9 159.6
24 08:20 29.1 19 5.49 3.1 4 6 1013.1 0 12.5 18.0 23.4 60.8 49.5 168.7
24 08:10 29.1 19 5.49 3.1 4 7 1013.1 0 12.5 18.0 23.4 60.8 49.5 168.7
24 08:00 29.5 18 5.31 2.7 6 17 1006.2 0 12.1 17.5 22.5 58.6 47.3 160.8
24 07:50 29.3 20 5.84 4 4 4 1013.1 0 13.2 18.4 24.3 63.4 52.8 180.2
24 07:40 28.5 20 5.59 3.3 4 6 1013.1 0 12.7 18.2 23.8 62.0 50.8 173.3
24 07:30 28.4 21 5.84 4 4 7 1006.1 0 13.2 18.3 24.4 63.5 53.0 181.0
24 07:20 28.5 20 5.59 3.3 6 7 1013.1 0 12.7 18.2 23.8 62.0 50.8 173.3
24 07:10 28.7 19 5.37 2.8 2 4 1013.1 0 12.2 17.9 23.1 60.1 48.6 165.4
24 07:00 28.7 19 5.37 2.8 2 6 1005.8 0 12.2 17.7 22.9 59.6 48.3 164.3
24 06:50 27.6 22 5.85 3.9 4 4 1013.1 0 13.3 18.7 24.9 64.7 54.0 184.2
24 06:40 27.8 21 5.65 3.5 2 4 1013.1 0 12.8 18.4 24.2 63.0 51.9 176.8
24 06:30 27.2 23 5.99 4.3 6 20 1005.6 0 13.6 18.7 25.2 65.6 55.2 188.7
24 06:20 27.2 24 6.25 4.9 4 6 1013.1 0 14.1 19.3 26.2 68.3 58.2 199.2
24 06:10 27.4 24 6.32 5 2 4 1013.1 0 14.2 19.3 26.3 68.7 58.8 201.2
24 06:00 28.1 23 6.29 5 9 17 1005.6 0 14.2 18.9 25.8 67.3 57.6 197.2
24 05:50 27.9 24 6.49 5.4 9 11 1013.1 0 14.6 19.4 26.7 69.7 60.2 206.1
24 05:40 27.8 25 6.72 5.9 7 7 1013.1 0 15.1 19.7 27.5 71.7 62.6 214.5
24 05:30 27.3 26 6.8 6.1 7 13 1005.5 0 15.2 19.7 27.6 72.2 63.4 217.3
24 05:20 27.1 26 6.73 5.9 6 9 1013.1 0 15.1 19.9 27.7 72.4 63.2 216.7
24 04:50 27.3 27 7.07 6.6 11 15 1013.1 0 15.8 20.3 28.7 75.0 66.6 228.6
24 04:40 27.9 26 7.03 6.6 15 19 1013.1 0 15.7 20.1 28.4 74.2 65.7 225.5
24 04:30 27.9 26 7.03 6.6 19 30 1005.5 0 15.7 19.9 28.1 73.6 65.3 224.0
24 04:20 27.9 26 7.03 6.6 20 24 1013.1 0 15.7 20.1 28.4 74.2 65.7 225.5
24 04:10 27.8 27 7.26 7.1 19 20 1013.1 0 16.2 20.4 29.1 76.2 68.2 234.2
24 04:00 27.8 27 7.26 7.1 20 35 1005.6 0 16.2 20.2 28.9 75.6 67.7 232.7
24 03:50 27.8 27 7.26 7.1 20 26 1013.1 0 16.2 20.4 29.1 76.2 68.2 234.2
24 03:40 27.7 27 7.22 7 22 28 1013.1 0 16.1 20.4 29.1 75.9 67.8 233.0

Last Refresh: 24-Jan-2021 20:38:07

Most of the information presented on this site is sourced from the Bureau of Meteorology.  Copyright in all material sourced from the Bureau of Meteorology resides with the Commonwealth of Australia.